sensor_id;sensor_type;location;lat;lon;timestamp;pressure;altitude;pressure_sealevel;temperature
62932;BMP280;49037;41.898;25.004;2023-10-08T00:01:56;96712.88;;;15.27
62932;BMP280;49037;41.898;25.004;2023-10-08T00:04:22;96708.91;;;15.28
62932;BMP280;49037;41.898;25.004;2023-10-08T00:06:50;96694.03;;;15.27
62932;BMP280;49037;41.898;25.004;2023-10-08T00:09:40;96706.66;;;15.34
62932;BMP280;49037;41.898;25.004;2023-10-08T00:12:06;96685.69;;;15.49
62932;BMP280;49037;41.898;25.004;2023-10-08T00:14:33;96688.94;;;15.91
62932;BMP280;49037;41.898;25.004;2023-10-08T00:17:13;96703.44;;;15.95
62932;BMP280;49037;41.898;25.004;2023-10-08T00:19:44;96680.94;;;15.83
62932;BMP280;49037;41.898;25.004;2023-10-08T00:22:33;96671.94;;;15.72
62932;BMP280;49037;41.898;25.004;2023-10-08T00:25:02;96672.16;;;15.83
62932;BMP280;49037;41.898;25.004;2023-10-08T00:28:15;96679.41;;;15.90
62932;BMP280;49037;41.898;25.004;2023-10-08T00:31:03;96682.84;;;15.90
62932;BMP280;49037;41.898;25.004;2023-10-08T00:34:04;96662.59;;;15.99
62932;BMP280;49037;41.898;25.004;2023-10-08T00:36:53;96659.94;;;15.82
62932;BMP280;49037;41.898;25.004;2023-10-08T00:40:37;96643.94;;;15.58
62932;BMP280;49037;41.898;25.004;2023-10-08T00:43:34;96634.56;;;15.49
62932;BMP280;49037;41.898;25.004;2023-10-08T00:46:15;96643.66;;;15.37
62932;BMP280;49037;41.898;25.004;2023-10-08T00:49:12;96657.13;;;15.54
62932;BMP280;49037;41.898;25.004;2023-10-08T00:51:59;96658.56;;;15.55
62932;BMP280;49037;41.898;25.004;2023-10-08T00:54:29;96651.00;;;15.53
62932;BMP280;49037;41.898;25.004;2023-10-08T00:57:25;96642.03;;;15.68
62932;BMP280;49037;41.898;25.004;2023-10-08T01:00:11;96637.69;;;15.55
62932;BMP280;49037;41.898;25.004;2023-10-08T01:02:46;96663.50;;;15.58
62932;BMP280;49037;41.898;25.004;2023-10-08T01:05:16;96643.78;;;15.56
62932;BMP280;49037;41.898;25.004;2023-10-08T01:07:53;96654.00;;;15.57
62932;BMP280;49037;41.898;25.004;2023-10-08T01:10:21;96648.66;;;15.40
62932;BMP280;49037;41.898;25.004;2023-10-08T01:12:50;96636.94;;;15.29
62932;BMP280;49037;41.898;25.004;2023-10-08T01:15:50;96641.25;;;15.15
62932;BMP280;49037;41.898;25.004;2023-10-08T01:18:28;96643.94;;;15.15
62932;BMP280;49037;41.898;25.004;2023-10-08T01:21:01;96634.28;;;15.12
62932;BMP280;49037;41.898;25.004;2023-10-08T01:23:32;96645.59;;;15.10
62932;BMP280;49037;41.898;25.004;2023-10-08T01:25:59;96644.34;;;15.11
62932;BMP280;49037;41.898;25.004;2023-10-08T01:28:58;96648.19;;;15.18
62932;BMP280;49037;41.898;25.004;2023-10-08T01:31:48;96644.72;;;15.25
62932;BMP280;49037;41.898;25.004;2023-10-08T01:34:18;96652.00;;;15.32
62932;BMP280;49037;41.898;25.004;2023-10-08T01:37:03;96648.16;;;15.35
62932;BMP280;49037;41.898;25.004;2023-10-08T01:39:49;96644.28;;;15.45
62932;BMP280;49037;41.898;25.004;2023-10-08T01:42:59;96638.53;;;15.32
62932;BMP280;49037;41.898;25.004;2023-10-08T01:45:29;96634.84;;;15.27
62932;BMP280;49037;41.898;25.004;2023-10-08T01:48:15;96615.38;;;15.02
62932;BMP280;49037;41.898;25.004;2023-10-08T01:50:57;96636.63;;;15.08
62932;BMP280;49037;41.898;25.004;2023-10-08T01:53:32;96616.56;;;14.92
62932;BMP280;49037;41.898;25.004;2023-10-08T01:56:02;96613.72;;;15.07
62932;BMP280;49037;41.898;25.004;2023-10-08T01:58:48;96609.97;;;15.02
62932;BMP280;49037;41.898;25.004;2023-10-08T02:01:34;96617.50;;;15.04
62932;BMP280;49037;41.898;25.004;2023-10-08T02:04:20;96617.69;;;15.06
62932;BMP280;49037;41.898;25.004;2023-10-08T02:06:48;96628.03;;;14.93
62932;BMP280;49037;41.898;25.004;2023-10-08T02:09:15;96629.28;;;14.92
62932;BMP280;49037;41.898;25.004;2023-10-08T02:11:49;96606.91;;;14.72
62932;BMP280;49037;41.898;25.004;2023-10-08T02:14:22;96610.84;;;14.71
62932;BMP280;49037;41.898;25.004;2023-10-08T02:16:52;96624.84;;;14.70
62932;BMP280;49037;41.898;25.004;2023-10-08T02:19:44;96624.97;;;14.79
62932;BMP280;49037;41.898;25.004;2023-10-08T02:22:10;96619.66;;;14.72
62932;BMP280;49037;41.898;25.004;2023-10-08T02:24:39;96608.00;;;14.69
62932;BMP280;49037;41.898;25.004;2023-10-08T02:27:26;96609.72;;;14.57
62932;BMP280;49037;41.898;25.004;2023-10-08T02:29:52;96598.66;;;14.54
62932;BMP280;49037;41.898;25.004;2023-10-08T02:32:19;96618.97;;;14.64
62932;BMP280;49037;41.898;25.004;2023-10-08T02:35:10;96590.59;;;14.54
62932;BMP280;49037;41.898;25.004;2023-10-08T02:38:08;96593.75;;;14.43
62932;BMP280;49037;41.898;25.004;2023-10-08T02:40:54;96593.34;;;14.46
62932;BMP280;49037;41.898;25.004;2023-10-08T02:43:23;96601.84;;;14.59
62932;BMP280;49037;41.898;25.004;2023-10-08T02:45:55;96593.31;;;14.70
62932;BMP280;49037;41.898;25.004;2023-10-08T02:48:30;96586.25;;;14.75
62932;BMP280;49037;41.898;25.004;2023-10-08T02:50:57;96592.81;;;14.81
62932;BMP280;49037;41.898;25.004;2023-10-08T02:53:32;96578.91;;;14.75
62932;BMP280;49037;41.898;25.004;2023-10-08T02:55:59;96580.81;;;14.65
62932;BMP280;49037;41.898;25.004;2023-10-08T02:58:49;96591.78;;;14.60
62932;BMP280;49037;41.898;25.004;2023-10-08T03:01:15;96587.19;;;14.53
62932;BMP280;49037;41.898;25.004;2023-10-08T03:03:45;96592.31;;;14.42
62932;BMP280;49037;41.898;25.004;2023-10-08T03:06:33;96592.16;;;14.40
62932;BMP280;49037;41.898;25.004;2023-10-08T03:09:03;96577.41;;;14.24
62932;BMP280;49037;41.898;25.004;2023-10-08T03:12:11;96590.97;;;14.33
62932;BMP280;49037;41.898;25.004;2023-10-08T03:15:02;96594.38;;;14.34
62932;BMP280;49037;41.898;25.004;2023-10-08T03:17:53;96596.59;;;14.45
62932;BMP280;49037;41.898;25.004;2023-10-08T03:20:23;96592.47;;;14.44
62932;BMP280;49037;41.898;25.004;2023-10-08T03:23:33;96586.09;;;14.39
62932;BMP280;49037;41.898;25.004;2023-10-08T03:26:41;96576.22;;;14.17
62932;BMP280;49037;41.898;25.004;2023-10-08T03:29:10;96576.44;;;14.12
62932;BMP280;49037;41.898;25.004;2023-10-08T03:31:47;96575.38;;;14.15
62932;BMP280;49037;41.898;25.004;2023-10-08T03:34:15;96584.94;;;14.25
62932;BMP280;49037;41.898;25.004;2023-10-08T03:36:57;96581.59;;;14.17
62932;BMP280;49037;41.898;25.004;2023-10-08T03:39:41;96576.78;;;14.16
62932;BMP280;49037;41.898;25.004;2023-10-08T03:42:19;96577.88;;;14.13
62932;BMP280;49037;41.898;25.004;2023-10-08T03:44:48;96579.44;;;14.16
62932;BMP280;49037;41.898;25.004;2023-10-08T03:47:22;96590.53;;;14.20
62932;BMP280;49037;41.898;25.004;2023-10-08T03:50:59;96575.44;;;14.00
62932;BMP280;49037;41.898;25.004;2023-10-08T03:54:15;96574.09;;;13.92
62932;BMP280;49037;41.898;25.004;2023-10-08T03:57:36;96583.50;;;14.00
62932;BMP280;49037;41.898;25.004;2023-10-08T04:04:00;96573.94;;;14.14
62932;BMP280;49037;41.898;25.004;2023-10-08T04:06:27;96579.44;;;14.16
62932;BMP280;49037;41.898;25.004;2023-10-08T04:09:43;96577.03;;;14.03
62932;BMP280;49037;41.898;25.004;2023-10-08T04:12:12;96557.28;;;13.91
62932;BMP280;49037;41.898;25.004;2023-10-08T04:15:09;96598.38;;;14.01
62932;BMP280;49037;41.898;25.004;2023-10-08T04:18:42;96569.88;;;13.81
62932;BMP280;49037;41.898;25.004;2023-10-08T04:21:37;96581.66;;;13.86
62932;BMP280;49037;41.898;25.004;2023-10-08T04:24:29;96568.28;;;13.78
62932;BMP280;49037;41.898;25.004;2023-10-08T04:27:04;96564.41;;;13.65
62932;BMP280;49037;41.898;25.004;2023-10-08T04:33:32;96579.44;;;13.68
62932;BMP280;49037;41.898;25.004;2023-10-08T04:36:36;96558.19;;;13.62
62932;BMP280;49037;41.898;25.004;2023-10-08T04:39:51;96592.69;;;13.97
62932;BMP280;49037;41.898;25.004;2023-10-08T04:42:24;96570.03;;;13.83
62932;BMP280;49037;41.898;25.004;2023-10-08T04:45:32;96581.53;;;14.01
62932;BMP280;49037;41.898;25.004;2023-10-08T04:48:39;96593.97;;;14.13
62932;BMP280;49037;41.898;25.004;2023-10-08T04:52:13;96577.53;;;14.09
62932;BMP280;49037;41.898;25.004;2023-10-08T04:54:45;96583.56;;;14.17
62932;BMP280;49037;41.898;25.004;2023-10-08T04:58:02;96572.50;;;14.13
62932;BMP280;49037;41.898;25.004;2023-10-08T05:01:04;96584.53;;;14.29
62932;BMP280;49037;41.898;25.004;2023-10-08T05:03:57;96574.34;;;14.27
62932;BMP280;49037;41.898;25.004;2023-10-08T05:06:28;96592.94;;;14.33
62932;BMP280;49037;41.898;25.004;2023-10-08T05:09:19;96579.44;;;14.16
62932;BMP280;49037;41.898;25.004;2023-10-08T05:11:51;96585.69;;;14.18
62932;BMP280;49037;41.898;25.004;2023-10-08T05:14:28;96596.00;;;14.29
62932;BMP280;49037;41.898;25.004;2023-10-08T05:17:20;96581.59;;;14.17
62932;BMP280;49037;41.898;25.004;2023-10-08T05:20:07;96582.13;;;14.16
62932;BMP280;49037;41.898;25.004;2023-10-08T05:22:33;96580.31;;;14.18
62932;BMP280;49037;41.898;25.004;2023-10-08T05:25:02;96572.81;;;14.17
62932;BMP280;49037;41.898;25.004;2023-10-08T05:27:41;96570.63;;;14.23
62932;BMP280;49037;41.898;25.004;2023-10-08T05:30:20;96576.63;;;14.31
62932;BMP280;49037;41.898;25.004;2023-10-08T05:33:06;96579.13;;;14.36
62932;BMP280;49037;41.898;25.004;2023-10-08T05:35:50;96566.88;;;14.43
62932;BMP280;49037;41.898;25.004;2023-10-08T05:38:23;96566.81;;;14.50
62932;BMP280;49037;41.898;25.004;2023-10-08T05:41:02;96586.41;;;14.60
62932;BMP280;49037;41.898;25.004;2023-10-08T05:43:31;96580.97;;;14.67
62932;BMP280;49037;41.898;25.004;2023-10-08T05:46:21;96579.38;;;14.81
62932;BMP280;49037;41.898;25.004;2023-10-08T05:49:00;96594.88;;;15.07
62932;BMP280;49037;41.898;25.004;2023-10-08T05:51:32;96583.88;;;15.91
62932;BMP280;49037;41.898;25.004;2023-10-08T05:54:20;96591.00;;;15.96
62932;BMP280;49037;41.898;25.004;2023-10-08T05:57:24;96580.34;;;15.98
62932;BMP280;49037;41.898;25.004;2023-10-08T06:00:08;96585.41;;;16.29
62932;BMP280;49037;41.898;25.004;2023-10-08T06:02:36;96589.00;;;16.60
62932;BMP280;49037;41.898;25.004;2023-10-08T06:05:32;96591.84;;;16.81
62932;BMP280;49037;41.898;25.004;2023-10-08T06:08:11;96577.22;;;16.74
62932;BMP280;49037;41.898;25.004;2023-10-08T06:11:03;96585.75;;;16.99
62932;BMP280;49037;41.898;25.004;2023-10-08T06:13:35;96571.38;;;17.25
62932;BMP280;49037;41.898;25.004;2023-10-08T06:16:23;96574.53;;;17.51
62932;BMP280;49037;41.898;25.004;2023-10-08T06:22:53;96585.56;;;18.46
62932;BMP280;49037;41.898;25.004;2023-10-08T06:25:47;96575.31;;;18.65
62932;BMP280;49037;41.898;25.004;2023-10-08T06:28:53;96571.00;;;19.15
62932;BMP280;49037;41.898;25.004;2023-10-08T06:31:48;96567.31;;;19.43
62932;BMP280;49037;41.898;25.004;2023-10-08T06:36:13;96592.91;;;19.85
62932;BMP280;49037;41.898;25.004;2023-10-08T06:38:58;96575.56;;;19.90
62932;BMP280;49037;41.898;25.004;2023-10-08T06:41:49;96579.75;;;20.16
62932;BMP280;49037;41.898;25.004;2023-10-08T06:44:22;96590.13;;;20.19
62932;BMP280;49037;41.898;25.004;2023-10-08T06:46:48;96592.00;;;20.28
62932;BMP280;49037;41.898;25.004;2023-10-08T06:49:52;96584.66;;;20.42
62932;BMP280;49037;41.898;25.004;2023-10-08T06:52:17;96595.16;;;20.72
62932;BMP280;49037;41.898;25.004;2023-10-08T06:57:02;96591.56;;;21.05
62932;BMP280;49037;41.898;25.004;2023-10-08T06:59:28;96582.72;;;21.18
62932;BMP280;49037;41.898;25.004;2023-10-08T07:01:56;96593.16;;;21.35
62932;BMP280;49037;41.898;25.004;2023-10-08T07:04:24;96583.53;;;21.59
62932;BMP280;49037;41.898;25.004;2023-10-08T07:06:50;96574.34;;;21.52
62932;BMP280;49037;41.898;25.004;2023-10-08T07:11:33;96570.16;;;21.89
62932;BMP280;49037;41.898;25.004;2023-10-08T07:17:05;96583.28;;;22.21
62932;BMP280;49037;41.898;25.004;2023-10-08T07:19:33;96582.34;;;22.44
62932;BMP280;49037;41.898;25.004;2023-10-08T07:22:08;96597.91;;;22.56
62932;BMP280;49037;41.898;25.004;2023-10-08T07:25:33;96602.16;;;22.75
62932;BMP280;49037;41.898;25.004;2023-10-08T07:28:02;96606.34;;;22.91
62932;BMP280;49037;41.898;25.004;2023-10-08T07:30:38;96602.78;;;23.02
62932;BMP280;49037;41.898;25.004;2023-10-08T07:33:10;96588.72;;;23.22
62932;BMP280;49037;41.898;25.004;2023-10-08T07:35:48;96596.31;;;23.39
62932;BMP280;49037;41.898;25.004;2023-10-08T07:38:20;96588.38;;;23.30
62932;BMP280;49037;41.898;25.004;2023-10-08T07:40:48;96581.69;;;23.18
62932;BMP280;49037;41.898;25.004;2023-10-08T07:43:15;96569.38;;;23.32
62932;BMP280;49037;41.898;25.004;2023-10-08T07:45:45;96592.59;;;23.63
62932;BMP280;49037;41.898;25.004;2023-10-08T07:48:11;96581.38;;;23.73
62932;BMP280;49037;41.898;25.004;2023-10-08T07:50:58;96580.19;;;23.93
62932;BMP280;49037;41.898;25.004;2023-10-08T07:53:24;96592.81;;;24.17
62932;BMP280;49037;41.898;25.004;2023-10-08T07:55:52;96579.41;;;24.23
62932;BMP280;49037;41.898;25.004;2023-10-08T07:58:20;96571.22;;;24.40
62932;BMP280;49037;41.898;25.004;2023-10-08T08:00:46;96578.72;;;24.40
62932;BMP280;49037;41.898;25.004;2023-10-08T08:03:20;96580.63;;;24.55
62932;BMP280;49037;41.898;25.004;2023-10-08T08:05:47;96576.53;;;24.54
62932;BMP280;49037;41.898;25.004;2023-10-08T08:08:16;96571.63;;;24.50
62932;BMP280;49037;41.898;25.004;2023-10-08T08:10:44;96576.09;;;24.78
62932;BMP280;49037;41.898;25.004;2023-10-08T08:13:12;96582.22;;;24.60
62932;BMP280;49037;41.898;25.004;2023-10-08T08:15:46;96567.84;;;24.59
62932;BMP280;49037;41.898;25.004;2023-10-08T08:18:16;96570.44;;;24.21
62932;BMP280;49037;41.898;25.004;2023-10-08T08:20:50;96563.00;;;24.58
62932;BMP280;49037;41.898;25.004;2023-10-08T08:23:16;96557.38;;;24.71
62932;BMP280;49037;41.898;25.004;2023-10-08T08:25:46;96566.28;;;24.71
62932;BMP280;49037;41.898;25.004;2023-10-08T08:28:43;96553.69;;;24.82
62932;BMP280;49037;41.898;25.004;2023-10-08T08:31:11;96571.72;;;24.89
62932;BMP280;49037;41.898;25.004;2023-10-08T08:33:45;96568.19;;;24.86
62932;BMP280;49037;41.898;25.004;2023-10-08T08:36:34;96543.06;;;24.90
62932;BMP280;49037;41.898;25.004;2023-10-08T08:39:03;96550.00;;;24.56
62932;BMP280;49037;41.898;25.004;2023-10-08T08:41:29;96550.00;;;24.56
62932;BMP280;49037;41.898;25.004;2023-10-08T08:43:58;96548.91;;;24.82
62932;BMP280;49037;41.898;25.004;2023-10-08T08:46:39;96564.94;;;24.90
62932;BMP280;49037;41.898;25.004;2023-10-08T08:49:11;96560.34;;;25.13
62932;BMP280;49037;41.898;25.004;2023-10-08T08:51:41;96548.41;;;25.24
62932;BMP280;49037;41.898;25.004;2023-10-08T08:54:10;96549.81;;;25.44
62932;BMP280;49037;41.898;25.004;2023-10-08T08:56:38;96561.66;;;25.12
62932;BMP280;49037;41.898;25.004;2023-10-08T08:59:11;96560.34;;;25.13
62932;BMP280;49037;41.898;25.004;2023-10-08T09:01:47;96564.63;;;25.18
62932;BMP280;49037;41.898;25.004;2023-10-08T09:04:16;96560.91;;;25.48
62932;BMP280;49037;41.898;25.004;2023-10-08T09:06:42;96557.28;;;25.42
62932;BMP280;49037;41.898;25.004;2023-10-08T09:09:15;96556.34;;;25.55
62932;BMP280;49037;41.898;25.004;2023-10-08T09:11:53;96556.56;;;25.61
62932;BMP280;49037;41.898;25.004;2023-10-08T09:14:40;96548.34;;;25.41
62932;BMP280;49037;41.898;25.004;2023-10-08T09:17:12;96546.59;;;25.50
62932;BMP280;49037;41.898;25.004;2023-10-08T09:19:52;96541.06;;;25.69
62932;BMP280;49037;41.898;25.004;2023-10-08T09:22:19;96542.56;;;25.72
62932;BMP280;49037;41.898;25.004;2023-10-08T09:27:39;96539.19;;;26.16
62932;BMP280;49037;41.898;25.004;2023-10-08T09:30:12;96517.16;;;25.91
62932;BMP280;49037;41.898;25.004;2023-10-08T09:32:47;96537.97;;;25.78
62932;BMP280;49037;41.898;25.004;2023-10-08T09:35:42;96526.53;;;25.84
62932;BMP280;49037;41.898;25.004;2023-10-08T09:38:11;96532.56;;;25.80
62932;BMP280;49037;41.898;25.004;2023-10-08T09:41:24;96508.84;;;25.87
62932;BMP280;49037;41.898;25.004;2023-10-08T09:44:15;96524.09;;;26.36
62932;BMP280;49037;41.898;25.004;2023-10-08T09:46:57;96499.91;;;26.52
62932;BMP280;49037;41.898;25.004;2023-10-08T09:49:38;96492.75;;;26.66
62932;BMP280;49037;41.898;25.004;2023-10-08T09:52:10;96493.38;;;26.39
62932;BMP280;49037;41.898;25.004;2023-10-08T09:54:44;96495.53;;;26.22
62932;BMP280;49037;41.898;25.004;2023-10-08T09:57:13;96469.81;;;26.31
62932;BMP280;49037;41.898;25.004;2023-10-08T09:59:39;96465.81;;;26.34
62932;BMP280;49037;41.898;25.004;2023-10-08T10:02:06;96488.56;;;26.17
62932;BMP280;49037;41.898;25.004;2023-10-08T10:04:46;96480.06;;;26.76
62932;BMP280;49037;41.898;25.004;2023-10-08T10:07:13;96463.72;;;26.80
62932;BMP280;49037;41.898;25.004;2023-10-08T10:09:43;96488.28;;;27.02
62932;BMP280;49037;41.898;25.004;2023-10-08T10:12:18;96471.94;;;26.80
62932;BMP280;49037;41.898;25.004;2023-10-08T10:14:55;96471.44;;;26.39
62932;BMP280;49037;41.898;25.004;2023-10-08T10:17:29;96474.09;;;26.14
62932;BMP280;49037;41.898;25.004;2023-10-08T10:19:56;96466.19;;;26.24
62932;BMP280;49037;41.898;25.004;2023-10-08T10:22:32;96460.44;;;26.37
62932;BMP280;49037;41.898;25.004;2023-10-08T10:25:17;96463.59;;;26.51
62932;BMP280;49037;41.898;25.004;2023-10-08T10:30:30;96458.13;;;27.02
62932;BMP280;49037;41.898;25.004;2023-10-08T10:33:06;96463.66;;;27.04
62932;BMP280;49037;41.898;25.004;2023-10-08T10:35:51;96453.03;;;27.17
62932;BMP280;49037;41.898;25.004;2023-10-08T10:38:23;96464.88;;;27.51
62932;BMP280;49037;41.898;25.004;2023-10-08T10:40:54;96464.38;;;27.31
62932;BMP280;49037;41.898;25.004;2023-10-08T10:43:42;96463.38;;;27.19
62932;BMP280;49037;41.898;25.004;2023-10-08T10:46:32;96449.81;;;27.52
62932;BMP280;49037;41.898;25.004;2023-10-08T10:49:04;96428.91;;;27.68
62932;BMP280;49037;41.898;25.004;2023-10-08T10:51:51;96433.78;;;27.42
62932;BMP280;49037;41.898;25.004;2023-10-08T10:54:35;96442.56;;;27.10
62932;BMP280;49037;41.898;25.004;2023-10-08T10:57:01;96445.03;;;27.00
62932;BMP280;49037;41.898;25.004;2023-10-08T10:59:33;96436.78;;;27.25
62932;BMP280;49037;41.898;25.004;2023-10-08T11:02:22;96443.28;;;27.38
62932;BMP280;49037;41.898;25.004;2023-10-08T11:05:13;96417.88;;;27.10
62932;BMP280;49037;41.898;25.004;2023-10-08T11:07:56;96423.59;;;27.18
62932;BMP280;49037;41.898;25.004;2023-10-08T11:10:44;96416.94;;;27.00
62932;BMP280;49037;41.898;25.004;2023-10-08T11:13:24;96422.59;;;26.80
62932;BMP280;49037;41.898;25.004;2023-10-08T11:15:54;96390.81;;;26.71
62932;BMP280;49037;41.898;25.004;2023-10-08T11:18:26;96412.72;;;27.22
62932;BMP280;49037;41.898;25.004;2023-10-08T11:21:13;96409.06;;;27.40
62932;BMP280;49037;41.898;25.004;2023-10-08T11:34:20;96394.34;;;28.19
62932;BMP280;49037;41.898;25.004;2023-10-08T11:36:52;96393.06;;;28.24
62932;BMP280;49037;41.898;25.004;2023-10-08T11:46:06;96400.34;;;27.21
62932;BMP280;49037;41.898;25.004;2023-10-08T11:48:31;96396.34;;;27.26
62932;BMP280;49037;41.898;25.004;2023-10-08T11:51:20;96414.34;;;27.33
62932;BMP280;49037;41.898;25.004;2023-10-08T11:53:57;96396.75;;;27.14
62932;BMP280;49037;41.898;25.004;2023-10-08T11:59:54;96369.19;;;27.38
62932;BMP280;49037;41.898;25.004;2023-10-08T12:02:39;96366.59;;;27.43
62932;BMP280;49037;41.898;25.004;2023-10-08T12:05:13;96367.34;;;27.46
62932;BMP280;49037;41.898;25.004;2023-10-08T12:10:20;96356.81;;;27.37
62932;BMP280;49037;41.898;25.004;2023-10-08T12:12:56;96377.97;;;27.05
62932;BMP280;49037;41.898;25.004;2023-10-08T12:15:27;96357.63;;;27.14
62932;BMP280;49037;41.898;25.004;2023-10-08T12:17:59;96365.56;;;27.29
62932;BMP280;49037;41.898;25.004;2023-10-08T12:20:40;96359.94;;;27.23
62932;BMP280;49037;41.898;25.004;2023-10-08T12:24:34;96330.34;;;27.49
62932;BMP280;49037;41.898;25.004;2023-10-08T12:27:03;96350.16;;;27.45
62932;BMP280;49037;41.898;25.004;2023-10-08T12:29:28;96350.47;;;27.28
62932;BMP280;49037;41.898;25.004;2023-10-08T12:31:54;96353.13;;;27.24
62932;BMP280;49037;41.898;25.004;2023-10-08T12:34:44;96351.22;;;27.33
62932;BMP280;49037;41.898;25.004;2023-10-08T12:38:16;96344.06;;;27.49
62932;BMP280;49037;41.898;25.004;2023-10-08T12:41:01;96353.44;;;27.67
62932;BMP280;49037;41.898;25.004;2023-10-08T12:48:06;96336.88;;;27.34
62932;BMP280;49037;41.898;25.004;2023-10-08T12:50:33;96332.94;;;27.14
62932;BMP280;49037;41.898;25.004;2023-10-08T12:53:11;96341.56;;;27.30
62932;BMP280;49037;41.898;25.004;2023-10-08T12:55:38;96342.72;;;27.50
62932;BMP280;49037;41.898;25.004;2023-10-08T12:58:11;96344.31;;;27.30
62932;BMP280;49037;41.898;25.004;2023-10-08T13:00:42;96342.69;;;27.19
62932;BMP280;49037;41.898;25.004;2023-10-08T13:03:08;96355.00;;;27.18
62932;BMP280;49037;41.898;25.004;2023-10-08T13:05:43;96349.38;;;27.12
62932;BMP280;49037;41.898;25.004;2023-10-08T13:08:12;96346.03;;;27.15
62932;BMP280;49037;41.898;25.004;2023-10-08T13:10:47;96338.44;;;27.14
62932;BMP280;49037;41.898;25.004;2023-10-08T13:13:17;96337.75;;;27.13
62932;BMP280;49037;41.898;25.004;2023-10-08T13:15:44;96346.66;;;27.14
62932;BMP280;49037;41.898;25.004;2023-10-08T13:18:34;96348.22;;;27.21
62932;BMP280;49037;41.898;25.004;2023-10-08T13:21:30;96350.03;;;27.10
62932;BMP280;49037;41.898;25.004;2023-10-08T13:24:03;96354.53;;;27.27
62932;BMP280;49037;41.898;25.004;2023-10-08T13:26:34;96337.69;;;27.11
62932;BMP280;49037;41.898;25.004;2023-10-08T13:29:00;96333.81;;;26.93
62932;BMP280;49037;41.898;25.004;2023-10-08T13:31:29;96321.78;;;27.04
62932;BMP280;49037;41.898;25.004;2023-10-08T13:34:04;96324.53;;;27.04
62932;BMP280;49037;41.898;25.004;2023-10-08T13:36:34;96324.25;;;26.94
62932;BMP280;49037;41.898;25.004;2023-10-08T13:39:06;96333.75;;;27.18
62932;BMP280;49037;41.898;25.004;2023-10-08T13:41:37;96337.75;;;27.13
62932;BMP280;49037;41.898;25.004;2023-10-08T13:44:04;96327.44;;;26.85
62932;BMP280;49037;41.898;25.004;2023-10-08T13:46:31;96316.22;;;26.75
62932;BMP280;49037;41.898;25.004;2023-10-08T13:49:01;96337.50;;;27.04
62932;BMP280;49037;41.898;25.004;2023-10-08T13:51:47;96323.09;;;27.03
62932;BMP280;49037;41.898;25.004;2023-10-08T13:54:22;96330.19;;;27.12
62932;BMP280;49037;41.898;25.004;2023-10-08T13:57:19;96306.75;;;26.80
62932;BMP280;49037;41.898;25.004;2023-10-08T13:59:45;96312.44;;;26.88
62932;BMP280;49037;41.898;25.004;2023-10-08T14:02:17;96327.03;;;26.96
62932;BMP280;49037;41.898;25.004;2023-10-08T14:04:46;96337.56;;;27.05
62932;BMP280;49037;41.898;25.004;2023-10-08T14:07:17;96337.72;;;26.84
62932;BMP280;49037;41.898;25.004;2023-10-08T14:09:44;96320.09;;;26.66
62932;BMP280;49037;41.898;25.004;2023-10-08T14:12:29;96320.34;;;26.49
62932;BMP280;49037;41.898;25.004;2023-10-08T14:18:02;96332.63;;;26.23
62932;BMP280;49037;41.898;25.004;2023-10-08T14:24:47;96321.97;;;26.09
62932;BMP280;49037;41.898;25.004;2023-10-08T14:27:27;96330.97;;;26.12
62932;BMP280;49037;41.898;25.004;2023-10-08T14:33:44;96310.63;;;25.96
62932;BMP280;49037;41.898;25.004;2023-10-08T14:46:59;96335.53;;;26.29
62932;BMP280;49037;41.898;25.004;2023-10-08T14:49:25;96329.94;;;26.00
62932;BMP280;49037;41.898;25.004;2023-10-08T14:51:50;96339.31;;;25.93
62932;BMP280;49037;41.898;25.004;2023-10-08T14:54:21;96326.44;;;25.74
62932;BMP280;49037;41.898;25.004;2023-10-08T14:59:03;96331.03;;;25.46
62932;BMP280;49037;41.898;25.004;2023-10-08T15:07:11;96334.22;;;25.60
62932;BMP280;49037;41.898;25.004;2023-10-08T15:26:09;96362.47;;;25.24
62932;BMP280;49037;41.898;25.004;2023-10-08T15:28:41;96369.81;;;24.98
62932;BMP280;49037;41.898;25.004;2023-10-08T15:31:24;96375.00;;;24.91
62932;BMP280;49037;41.898;25.004;2023-10-08T15:34:13;96359.47;;;24.76
62932;BMP280;49037;41.898;25.004;2023-10-08T15:37:11;96369.91;;;24.81
62932;BMP280;49037;41.898;25.004;2023-10-08T15:43:29;96360.03;;;24.34
62932;BMP280;49037;41.898;25.004;2023-10-08T15:49:21;96369.63;;;24.35
62932;BMP280;49037;41.898;25.004;2023-10-08T15:55:02;96384.22;;;24.24
62932;BMP280;49037;41.898;25.004;2023-10-08T16:11:41;96420.03;;;23.80
62932;BMP280;49037;41.898;25.004;2023-10-08T16:18:06;96420.13;;;23.65
62932;BMP280;49037;41.898;25.004;2023-10-08T16:42:34;96453.16;;;23.73
62932;BMP280;49037;41.898;25.004;2023-10-08T16:56:50;96449.28;;;23.78
62932;BMP280;49037;41.898;25.004;2023-10-08T16:59:42;96453.66;;;23.67
62932;BMP280;49037;41.898;25.004;2023-10-08T17:02:17;96447.88;;;23.59
62932;BMP280;49037;41.898;25.004;2023-10-08T17:16:05;96452.88;;;23.65
62932;BMP280;49037;41.898;25.004;2023-10-08T17:18:57;96472.03;;;23.67
62932;BMP280;49037;41.898;25.004;2023-10-08T17:25:35;96470.44;;;23.45
62932;BMP280;49037;41.898;25.004;2023-10-08T17:30:58;96478.09;;;23.48
62932;BMP280;49037;41.898;25.004;2023-10-08T17:33:50;96473.00;;;23.41
62932;BMP280;49037;41.898;25.004;2023-10-08T17:36:38;96486.72;;;23.43
62932;BMP280;49037;41.898;25.004;2023-10-08T17:39:13;96470.22;;;23.23
62932;BMP280;49037;41.898;25.004;2023-10-08T17:41:50;96476.81;;;23.18
62932;BMP280;49037;41.898;25.004;2023-10-08T17:44:22;96478.66;;;23.14
62932;BMP280;49037;41.898;25.004;2023-10-08T17:48:10;96473.56;;;23.22
62932;BMP280;49037;41.898;25.004;2023-10-08T17:50:54;96492.63;;;23.22
62932;BMP280;49037;41.898;25.004;2023-10-08T17:53:23;96492.38;;;23.16
62932;BMP280;49037;41.898;25.004;2023-10-08T17:55:50;96491.50;;;23.12
62932;BMP280;49037;41.898;25.004;2023-10-08T17:58:30;96472.34;;;23.10
62932;BMP280;49037;41.898;25.004;2023-10-08T18:01:02;96494.03;;;23.23
62932;BMP280;49037;41.898;25.004;2023-10-08T18:06:58;96495.19;;;23.18
62932;BMP280;49037;41.898;25.004;2023-10-08T18:09:30;96492.53;;;23.05